Time;durP1;ratioP1;P1;durP2;ratioP2;P2;SDS_P1;SDS_P2;PMS_P1;PMS_P2;Temp;Humidity;BMP_temperature;BMP_pressure;BME280_temperature;BME280_humidity;BME280_pressure;Samples;Min_cycle;Max_cycle;Signal;HPM_P1;HPM_P2
2024/01/25 00:02:11;;;;;;;12.75;6.07;;;;;;;;;;6116036;23;20026;-50
2024/01/25 00:05:05;;;;;;;13.77;6.60;;;;;;;;;;6114933;23;20028;-53
2024/01/25 00:07:59;;;;;;;12.73;6.03;;;;;;;;;;6115970;23;20026;-54
2024/01/25 00:10:52;;;;;;;12.90;6.35;;;;;;;;;;6113482;23;20088;-49
2024/01/25 00:13:46;;;;;;;16.77;6.75;;;;;;;;;;6115198;23;20022;-49
2024/01/25 00:16:34;;;;;;;10.63;5.30;;;;;;;;;;6117893;23;20671;-58
2024/01/25 00:19:08;;;;;;;9.05;4.97;;;;;;;;;;6116536;23;20026;-61
2024/01/25 00:21:36;;;;;;;11.25;5.18;;;;;;;;;;6115873;23;20029;-60
2024/01/25 00:24:12;;;;;;;10.43;5.50;;;;;;;;;;6113277;23;20467;-59
2024/01/25 00:26:45;;;;;;;8.60;5.13;;;;;;;;;;6116479;23;20025;-54
2024/01/25 00:29:13;;;;;;;9.93;5.35;;;;;;;;;;6113702;23;20254;-60
2024/01/25 00:31:46;;;;;;;14.18;5.88;;;;;;;;;;6116105;23;20471;-61
2024/01/25 00:34:14;;;;;;;16.17;4.80;;;;;;;;;;6114149;23;20030;-61
2024/01/25 00:36:41;;;;;;;;;;;;;;;;;;6115424;23;20502;-61
2024/01/25 00:39:35;;;;;;;16.25;5.40;;;;;;;;;;6116015;23;19952;-61
2024/01/25 00:42:23;;;;;;;29.55;5.30;;;;;;;;;;6115239;23;20022;-62
2024/01/25 00:45:17;;;;;;;26.63;6.03;;;;;;;;;;6115347;23;20088;-67
2024/01/25 00:48:04;;;;;;;18.70;5.05;;;;;;;;;;6115710;23;20026;-68
2024/01/25 00:50:58;;;;;;;15.18;4.97;;;;;;;;;;6114517;23;20026;-68
2024/01/25 00:53:45;;;;;;;17.30;4.53;;;;;;;;;;6114110;23;20022;-68
2024/01/25 00:56:40;;;;;;;19.13;4.40;;;;;;;;;;6113983;23;20290;-68
2024/01/25 00:59:27;;;;;;;11.13;3.95;;;;;;;;;;6113752;23;20029;-68
2024/01/25 01:02:22;;;;;;;22.10;4.72;;;;;;;;;;6114291;23;20033;-68
2024/01/25 01:05:09;;;;;;;10.00;4.30;;;;;;;;;;6115803;23;20480;-60
2024/01/25 01:08:04;;;;;;;22.05;5.70;;;;;;;;;;6115197;23;20029;-62
2024/01/25 01:10:51;;;;;;;11.52;4.50;;;;;;;;;;6114506;23;20092;-61
2024/01/25 01:13:46;;;;;;;14.93;4.22;;;;;;;;;;6114533;23;20069;-61
2024/01/25 01:16:35;;;;;;;10.02;3.90;;;;;;;;;;6115993;23;20053;-62
2024/01/25 01:19:27;;;;;;;10.15;3.90;;;;;;;;;;6115899;23;20471;-61
2024/01/25 01:22:14;;;;;;;25.60;4.68;;;;;;;;;;6113950;23;20109;-67
2024/01/25 01:25:15;;;;;;;46.95;4.97;;;;;;;;;;6114709;23;20026;-67
2024/01/25 01:28:03;;;;;;;21.27;4.88;;;;;;;;;;6115458;23;20026;-68
2024/01/25 01:30:57;;;;;;;14.77;4.38;;;;;;;;;;6115357;23;20096;-67
2024/01/25 01:33:44;;;;;;;12.27;4.00;;;;;;;;;;6115453;23;20467;-61
2024/01/25 01:36:38;;;;;;;16.88;3.92;;;;;;;;;;6116738;23;20025;-60
2024/01/25 01:39:26;;;;;;;7.88;3.90;;;;;;;;;;6114476;23;20529;-58
2024/01/25 01:42:19;;;;;;;9.35;4.00;;;;;;;;;;6115165;23;20022;-60
2024/01/25 01:45:06;;;;;;;5.72;3.22;;;;;;;;;;6114858;23;20026;-60
2024/01/25 01:48:00;;;;;;;4.05;2.80;;;;;;;;;;6113074;23;20032;-60
2024/01/25 01:50:48;;;;;;;4.90;2.60;;;;;;;;;;6109553;23;20049;-60
2024/01/25 01:53:42;;;;;;;2.80;1.90;;;;;;;;;;6114694;23;20121;-58
2024/01/25 01:56:36;;;;;;;3.58;2.13;;;;;;;;;;6113658;23;20029;-59
2024/01/25 01:59:30;;;;;;;3.85;2.17;;;;;;;;;;6113988;23;20387;-60
2024/01/25 02:02:17;;;;;;;1.65;1.55;;;;;;;;;;6113687;23;20482;-65
2024/01/25 02:05:12;;;;;;;3.42;2.03;;;;;;;;;;6113990;23;20021;-60
2024/01/25 02:07:59;;;;;;;4.75;2.55;;;;;;;;;;6114526;23;20479;-58
2024/01/25 02:11:05;;;;;;;3.05;2.40;;;;;;;;;;6113085;23;20026;-60
2024/01/25 02:13:59;;;;;;;4.07;2.80;;;;;;;;;;6116105;23;20022;-60
2024/01/25 02:16:54;;;;;;;5.78;3.50;;;;;;;;;;6113841;23;20429;-59
2024/01/25 02:19:47;;;;;;;4.47;2.85;;;;;;;;;;6114651;23;20166;-60
2024/01/25 02:22:35;;;;;;;5.97;3.67;;;;;;;;;;6115178;23;20052;-61
2024/01/25 02:25:28;;;;;;;6.00;3.10;;;;;;;;;;6113424;23;20073;-61
2024/01/25 02:28:16;;;;;;;6.05;3.70;;;;;;;;;;6113550;23;20049;-62
2024/01/25 02:31:10;;;;;;;6.55;3.72;;;;;;;;;;6113836;23;20061;-62
2024/01/25 02:33:57;;;;;;;6.97;3.67;;;;;;;;;;6115780;23;20806;-61
2024/01/25 02:36:51;;;;;;;5.28;3.53;;;;;;;;;;6116318;23;20025;-49
2024/01/25 02:39:38;;;;;;;4.65;3.00;;;;;;;;;;6113125;23;20085;-52
2024/01/25 02:42:31;;;;;;;6.03;3.53;;;;;;;;;;6113872;23;20022;-51
2024/01/25 02:45:19;;;;;;;5.32;3.13;;;;;;;;;;6114066;23;20018;-50
2024/01/25 02:48:13;;;;;;;5.45;3.05;;;;;;;;;;6114280;23;20459;-57
2024/01/25 02:51:00;;;;;;;4.70;3.13;;;;;;;;;;6114821;23;20085;-51
2024/01/25 02:53:53;;;;;;;8.32;3.28;;;;;;;;;;6111881;23;20022;-52
2024/01/25 02:56:41;;;;;;;4.82;2.67;;;;;;;;;;6112627;23;20109;-47
2024/01/25 02:59:34;;;;;;;5.00;2.97;;;;;;;;;;6114054;23;20026;-47
2024/01/25 03:02:22;;;;;;;5.38;2.90;;;;;;;;;;6113123;23;20425;-51
2024/01/25 03:05:15;;;;;;;6.80;2.83;;;;;;;;;;6114716;23;20026;-53
2024/01/25 03:08:03;;;;;;;4.70;2.60;;;;;;;;;;6114907;23;20025;-50
2024/01/25 03:11:09;;;;;;;4.10;2.65;;;;;;;;;;6115006;23;20412;-50
2024/01/25 03:14:04;;;;;;;3.80;2.45;;;;;;;;;;6114509;23;20025;-52
2024/01/25 03:16:58;;;;;;;3.92;2.53;;;;;;;;;;6114087;23;20364;-64
2024/01/25 03:19:47;;;;;;;5.53;3.03;;;;;;;;;;6113877;23;20260;-60
2024/01/25 03:22:39;;;;;;;9.10;4.88;;;;;;;;;;6112126;23;20096;-60
2024/01/25 03:25:27;;;;;;;8.20;4.20;;;;;;;;;;6115521;23;20025;-60
2024/01/25 03:28:20;;;;;;;10.18;4.45;;;;;;;;;;6114659;23;20574;-60
2024/01/25 03:31:08;;;;;;;11.18;4.28;;;;;;;;;;6115155;23;20026;-60
2024/01/25 03:34:02;;;;;;;8.70;4.25;;;;;;;;;;6112853;23;20026;-62
2024/01/25 03:36:52;;;;;;;4.40;2.70;;;;;;;;;;6113233;23;20106;-57
2024/01/25 03:39:44;;;;;;;6.65;4.30;;;;;;;;;;6112049;23;20021;-54
2024/01/25 03:42:31;;;;;;;6.35;4.10;;;;;;;;;;6112901;23;20584;-56
2024/01/25 03:45:44;;;;;;;8.27;4.43;;;;;;;;;;6112027;23;20018;-60
2024/01/25 03:48:32;;;;;;;8.38;4.40;;;;;;;;;;6114758;23;20538;-59
2024/01/25 03:51:26;;;;;;;7.25;4.35;;;;;;;;;;6115010;23;20082;-60
2024/01/25 03:54:13;;;;;;;7.65;4.35;;;;;;;;;;6113289;23;20509;-60
2024/01/25 03:57:07;;;;;;;6.93;4.05;;;;;;;;;;6116633;23;20528;-60
2024/01/25 03:59:54;;;;;;;7.50;4.10;;;;;;;;;;6113383;23;20029;-60
2024/01/25 04:02:47;;;;;;;7.82;4.25;;;;;;;;;;6114458;23;20728;-52
2024/01/25 04:05:35;;;;;;;6.43;3.92;;;;;;;;;;6113888;23;20029;-68
2024/01/25 04:08:29;;;;;;;7.45;4.20;;;;;;;;;;6114357;23;20033;-67
2024/01/25 04:11:29;;;;;;;9.13;4.88;;;;;;;;;;6115072;23;20101;-67
2024/01/25 04:14:29;;;;;;;8.25;4.47;;;;;;;;;;6116672;23;20048;-67
2024/01/25 04:17:17;;;;;;;11.00;5.18;;;;;;;;;;6116415;23;20025;-67
2024/01/25 04:20:11;;;;;;;10.52;5.32;;;;;;;;;;6115347;23;20022;-55
2024/01/25 04:22:58;;;;;;;9.95;4.30;;;;;;;;;;6115973;23;20287;-57
2024/01/25 04:25:55;;;;;;;12.30;5.63;;;;;;;;;;6113526;23;20033;-58
2024/01/25 04:28:40;;;;;;;11.68;5.60;;;;;;;;;;6115608;23;20026;-57
2024/01/25 04:31:33;;;;;;;10.70;5.03;;;;;;;;;;6116871;23;20026;-60
2024/01/25 04:34:21;;;;;;;12.40;6.00;;;;;;;;;;6116388;23;20080;-68
2024/01/25 04:37:15;;;;;;;9.43;5.05;;;;;;;;;;6116408;23;20057;-67
2024/01/25 04:40:03;;;;;;;9.43;5.50;;;;;;;;;;6114615;23;20022;-67
2024/01/25 04:42:57;;;;;;;11.40;5.63;;;;;;;;;;6113545;23;20018;-67
2024/01/25 04:45:44;;;;;;;11.85;4.97;;;;;;;;;;6115275;23;20022;-67
2024/01/25 04:48:37;;;;;;;9.57;5.78;;;;;;;;;;6114914;23;20022;-65
2024/01/25 04:51:25;;;;;;;14.95;6.30;;;;;;;;;;6113262;23;20150;-64
2024/01/25 04:54:18;;;;;;;18.88;6.45;;;;;;;;;;6113701;23;20493;-65
2024/01/25 04:57:06;;;;;;;9.38;5.22;;;;;;;;;;6115272;23;20438;-64
2024/01/25 05:00:00;;;;;;;11.98;6.38;;;;;;;;;;6113261;23;20030;-59
2024/01/25 05:02:47;;;;;;;10.23;5.97;;;;;;;;;;6113823;23;20049;-64
2024/01/25 05:05:41;;;;;;;10.18;5.55;;;;;;;;;;6115065;23;20084;-65
2024/01/25 05:08:28;;;;;;;8.43;5.00;;;;;;;;;;6116228;23;20089;-65
2024/01/25 05:11:34;;;;;;;9.13;5.13;;;;;;;;;;6115641;23;20033;-64
2024/01/25 05:14:29;;;;;;;7.32;4.18;;;;;;;;;;6116199;23;20018;-64
2024/01/25 05:17:22;;;;;;;7.53;4.80;;;;;;;;;;6117914;23;20022;-51
2024/01/25 05:20:10;;;;;;;8.82;4.78;;;;;;;;;;6114395;23;20497;-52
2024/01/25 05:23:04;;;;;;;7.60;4.55;;;;;;;;;;6116552;23;20041;-49
2024/01/25 05:25:51;;;;;;;10.00;5.65;;;;;;;;;;6114932;23;20073;-53
2024/01/25 05:28:45;;;;;;;9.98;5.47;;;;;;;;;;6114984;23;20030;-64
2024/01/25 05:31:33;;;;;;;7.68;4.82;;;;;;;;;;6114886;23;20077;-61
2024/01/25 05:34:27;;;;;;;11.10;5.70;;;;;;;;;;6114462;23;20400;-61
2024/01/25 05:37:15;;;;;;;9.85;5.10;;;;;;;;;;6108961;23;20728;-62
2024/01/25 05:40:09;;;;;;;10.20;5.75;;;;;;;;;;6114301;23;20022;-61
2024/01/25 05:42:56;;;;;;;7.70;4.55;;;;;;;;;;6114314;23;20029;-61
2024/01/25 05:45:50;;;;;;;8.95;5.45;;;;;;;;;;6114410;23;20356;-59
2024/01/25 05:48:38;;;;;;;10.88;5.97;;;;;;;;;;6116101;23;20132;-61
2024/01/25 05:51:32;;;;;;;12.32;5.90;;;;;;;;;;6116180;23;20036;-59
2024/01/25 05:54:19;;;;;;;9.23;5.97;;;;;;;;;;6117117;23;20026;-59
2024/01/25 05:57:12;;;;;;;9.95;5.78;;;;;;;;;;6116301;23;20030;-59
2024/01/25 06:00:00;;;;;;;15.77;6.55;;;;;;;;;;6115147;23;20780;-61
2024/01/25 06:02:53;;;;;;;11.18;5.90;;;;;;;;;;6115337;23;20033;-60
2024/01/25 06:05:41;;;;;;;10.98;5.90;;;;;;;;;;6116959;23;20098;-59
2024/01/25 06:08:35;;;;;;;11.38;5.80;;;;;;;;;;6117465;23;20082;-60
2024/01/25 06:11:44;;;;;;;10.63;5.60;;;;;;;;;;6116547;23;20065;-59
2024/01/25 06:14:38;;;;;;;11.82;6.15;;;;;;;;;;6116856;23;20049;-48
2024/01/25 06:17:25;;;;;;;12.30;5.78;;;;;;;;;;6116347;23;20026;-66
2024/01/25 06:20:18;;;;;;;10.70;5.45;;;;;;;;;;6115910;23;20026;-66
2024/01/25 06:23:06;;;;;;;12.23;6.03;;;;;;;;;;6116759;23;20022;-67
2024/01/25 06:26:00;;;;;;;9.32;5.40;;;;;;;;;;6116974;23;20029;-66
2024/01/25 06:28:54;;;;;;;9.57;5.25;;;;;;;;;;6117039;23;20029;-66
2024/01/25 06:31:47;;;;;;;11.00;5.95;;;;;;;;;;6117850;23;20025;-66
2024/01/25 06:34:42;;;;;;;9.50;5.40;;;;;;;;;;6118082;23;20028;-63
2024/01/25 06:37:36;;;;;;;10.93;5.50;;;;;;;;;;6118024;23;20657;-63
2024/01/25 06:40:30;;;;;;;9.85;5.40;;;;;;;;;;6116889;23;20026;-63
2024/01/25 06:43:17;;;;;;;10.15;5.28;;;;;;;;;;6115974;23;20026;-49
2024/01/25 06:46:11;;;;;;;10.07;5.78;;;;;;;;;;6115906;23;20096;-61
2024/01/25 06:48:59;;;;;;;12.07;6.40;;;;;;;;;;6116162;23;20069;-62
2024/01/25 06:51:53;;;;;;;11.32;5.75;;;;;;;;;;6114806;23;20072;-61
2024/01/25 06:54:40;;;;;;;12.02;6.25;;;;;;;;;;6114230;23;20018;-62
2024/01/25 06:57:34;;;;;;;11.15;6.32;;;;;;;;;;6116444;23;20065;-62
2024/01/25 07:00:22;;;;;;;14.68;6.20;;;;;;;;;;6115690;23;20029;-61
2024/01/25 07:03:16;;;;;;;11.35;5.82;;;;;;;;;;6116090;23;20190;-61
2024/01/25 07:06:10;;;;;;;12.63;6.28;;;;;;;;;;6116295;23;20030;-62
2024/01/25 07:09:04;;;;;;;12.82;5.75;;;;;;;;;;6116587;23;20097;-62
2024/01/25 07:12:04;;;;;;;14.23;6.20;;;;;;;;;;6115859;23;20302;-58
2024/01/25 07:14:52;;;;;;;14.82;6.07;;;;;;;;;;6116395;23;20099;-67
2024/01/25 07:17:45;;;;;;;9.95;5.10;;;;;;;;;;6116791;23;20275;-67
2024/01/25 07:20:33;;;;;;;9.75;5.30;;;;;;;;;;6116010;23;20069;-66
2024/01/25 07:23:26;;;;;;;9.98;5.18;;;;;;;;;;6116830;23;20081;-67
2024/01/25 07:26:18;;;;;;;12.48;5.35;;;;;;;;;;6117289;23;20034;-67
2024/01/25 07:29:14;;;;;;;11.30;5.75;;;;;;;;;;6118365;23;20459;-67
2024/01/25 07:32:02;;;;;;;12.43;6.07;;;;;;;;;;6117864;23;20077;-59
2024/01/25 07:34:56;;;;;;;11.07;5.63;;;;;;;;;;6118815;23;20033;-58
2024/01/25 07:37:43;;;;;;;9.82;5.30;;;;;;;;;;6118722;23;20088;-59
2024/01/25 07:40:37;;;;;;;9.60;5.22;;;;;;;;;;6117738;23;20092;-49
2024/01/25 07:43:25;;;;;;;9.27;4.88;;;;;;;;;;6117297;23;20025;-64
2024/01/25 07:46:19;;;;;;;15.10;5.38;;;;;;;;;;6117344;23;20356;-64
2024/01/25 07:49:06;;;;;;;15.07;6.45;;;;;;;;;;6118055;23;20108;-64
2024/01/25 07:52:00;;;;;;;13.80;5.88;;;;;;;;;;6115756;23;20751;-64
2024/01/25 07:54:49;;;;;;;9.10;4.80;;;;;;;;;;6116897;23;20026;-64
2024/01/25 07:57:44;;;;;;;9.07;4.70;;;;;;;;;;6117899;23;20026;-62
2024/01/25 08:00:37;;;;;;;9.50;4.68;;;;;;;;;;6116541;23;20026;-62
2024/01/25 08:03:31;;;;;;;8.88;4.75;;;;;;;;;;6116989;23;20359;-62
2024/01/25 08:06:18;;;;;;;7.47;4.40;;;;;;;;;;6114790;23;20077;-62
2024/01/25 08:09:12;;;;;;;9.25;5.00;;;;;;;;;;6118434;23;20026;-62
2024/01/25 08:12:06;;;;;;;9.82;4.63;;;;;;;;;;6116934;23;20101;-62
2024/01/25 08:15:07;;;;;;;9.90;4.78;;;;;;;;;;6118922;23;20073;-62
2024/01/25 08:17:55;;;;;;;10.80;5.00;;;;;;;;;;6116723;23;20025;-63
2024/01/25 08:20:48;;;;;;;11.07;5.07;;;;;;;;;;6118247;23;20029;-62
2024/01/25 08:23:36;;;;;;;7.00;3.92;;;;;;;;;;6115451;23;20085;-62
2024/01/25 08:26:29;;;;;;;9.32;4.10;;;;;;;;;;6117368;23;20026;-55
2024/01/25 08:29:17;;;;;;;11.13;4.18;;;;;;;;;;6118199;23;20359;-51
2024/01/25 08:32:10;;;;;;;9.52;4.35;;;;;;;;;;6118032;23;20081;-51
2024/01/25 08:34:58;;;;;;;8.20;4.53;;;;;;;;;;6117097;23;20028;-51
2024/01/25 08:37:52;;;;;;;8.48;4.15;;;;;;;;;;6117883;23;20029;-62
2024/01/25 08:40:39;;;;;;;8.25;3.92;;;;;;;;;;6116307;23;20400;-59
2024/01/25 08:43:32;;;;;;;9.25;4.38;;;;;;;;;;6116748;23;20595;-57
2024/01/25 08:46:20;;;;;;;6.53;3.80;;;;;;;;;;6116692;23;20022;-59
2024/01/25 08:49:13;;;;;;;7.05;3.70;;;;;;;;;;6115787;23;20077;-59
2024/01/25 08:52:01;;;;;;;6.82;3.95;;;;;;;;;;6116196;23;20512;-59
2024/01/25 08:54:55;;;;;;;6.47;3.28;;;;;;;;;;6116282;23;20030;-62
2024/01/25 08:57:42;;;;;;;5.60;3.60;;;;;;;;;;6116429;23;20074;-62
2024/01/25 09:00:36;;;;;;;6.82;3.25;;;;;;;;;;6114554;23;20026;-62
2024/01/25 09:03:23;;;;;;;7.97;3.78;;;;;;;;;;6117523;23;20401;-62
2024/01/25 09:06:17;;;;;;;8.32;3.83;;;;;;;;;;6118112;23;20093;-62
2024/01/25 09:09:05;;;;;;;5.43;3.20;;;;;;;;;;6117404;23;20026;-68
2024/01/25 09:12:14;;;;;;;6.43;3.22;;;;;;;;;;6116833;23;20092;-68
2024/01/25 09:15:08;;;;;;;7.72;3.38;;;;;;;;;;6117181;23;20093;-68
2024/01/25 09:18:01;;;;;;;6.10;3.30;;;;;;;;;;6116781;23;20029;-68
2024/01/25 09:20:48;;;;;;;5.32;3.20;;;;;;;;;;6115866;23;20026;-68
2024/01/25 09:23:41;;;;;;;6.60;3.20;;;;;;;;;;6117909;23;20026;-62
2024/01/25 09:26:29;;;;;;;6.13;3.30;;;;;;;;;;6116282;23;20476;-62
2024/01/25 09:29:23;;;;;;;4.88;3.15;;;;;;;;;;6118249;23;20022;-62
2024/01/25 09:32:10;;;;;;;4.35;2.95;;;;;;;;;;6117550;23;20033;-64
2024/01/25 09:35:05;;;;;;;4.85;3.10;;;;;;;;;;6117215;23;20046;-55
2024/01/25 09:37:52;;;;;;;3.50;2.35;;;;;;;;;;6117233;23;20669;-62
2024/01/25 09:40:46;;;;;;;6.95;3.05;;;;;;;;;;6114544;23;20057;-64
2024/01/25 09:43:33;;;;;;;6.75;3.50;;;;;;;;;;6115917;23;20677;-64
2024/01/25 09:46:28;;;;;;;5.97;3.40;;;;;;;;;;6114707;23;20495;-64
2024/01/25 09:49:22;;;;;;;4.05;2.97;;;;;;;;;;6116421;23;20359;-64
2024/01/25 09:52:17;;;;;;;6.07;3.38;;;;;;;;;;6115952;23;20084;-62
2024/01/25 09:55:06;;;;;;;4.75;3.03;;;;;;;;;;6116494;23;20022;-62
2024/01/25 09:58:00;;;;;;;4.95;3.08;;;;;;;;;;6115972;23;20041;-61
2024/01/25 10:00:47;;;;;;;3.45;2.53;;;;;;;;;;6115740;23;20145;-62
2024/01/25 10:03:47;;;;;;;4.03;2.85;;;;;;;;;;6114881;23;20460;-60
2024/01/25 10:06:34;;;;;;;5.07;3.05;;;;;;;;;;6114634;23;20033;-64
2024/01/25 10:09:29;;;;;;;4.63;2.97;;;;;;;;;;6115964;23;20455;-64
2024/01/25 10:12:23;;;;;;;3.50;2.40;;;;;;;;;;6114221;23;20026;-64
2024/01/25 10:15:16;;;;;;;3.28;2.42;;;;;;;;;;6115587;23;20037;-64
2024/01/25 10:18:03;;;;;;;3.92;2.90;;;;;;;;;;6114638;23;20029;-65
2024/01/25 10:20:57;;;;;;;4.68;3.30;;;;;;;;;;6116876;23;20392;-68
2024/01/25 10:23:47;;;;;;;5.55;3.35;;;;;;;;;;6113808;23;20025;-67
2024/01/25 10:26:42;;;;;;;4.57;3.17;;;;;;;;;;6115603;23;20025;-68
2024/01/25 10:29:28;;;;;;;9.88;3.35;;;;;;;;;;6117309;23;20018;-67
2024/01/25 10:32:23;;;;;;;5.95;3.58;;;;;;;;;;6115534;23;20081;-61
2024/01/25 10:35:10;;;;;;;6.10;3.83;;;;;;;;;;6117099;23;20026;-59
2024/01/25 10:38:04;;;;;;;6.88;3.90;;;;;;;;;;6116384;23;20388;-58
2024/01/25 10:40:53;;;;;;;6.05;3.53;;;;;;;;;;6113942;23;20026;-60
2024/01/25 10:43:47;;;;;;;5.00;3.33;;;;;;;;;;6115246;23;20097;-60
2024/01/25 10:46:34;;;;;;;5.07;3.63;;;;;;;;;;6115043;23;20054;-65
2024/01/25 10:49:28;;;;;;;4.32;2.97;;;;;;;;;;6116440;23;20021;-60
2024/01/25 10:52:16;;;;;;;3.40;2.33;;;;;;;;;;6115269;23;20096;-60
2024/01/25 10:55:10;;;;;;;5.70;2.80;;;;;;;;;;6115770;23;20097;-60
2024/01/25 10:58:03;;;;;;;6.22;2.90;;;;;;;;;;6114327;23;20030;-60
2024/01/25 11:01:00;;;;;;;3.38;2.53;;;;;;;;;;6115335;23;20022;-62
2024/01/25 11:03:47;;;;;;;4.55;3.42;;;;;;;;;;6114284;23;20030;-61
2024/01/25 11:06:48;;;;;;;4.15;2.70;;;;;;;;;;6115334;23;20096;-62
2024/01/25 11:09:37;;;;;;;4.03;2.63;;;;;;;;;;6115974;23;20022;-61
2024/01/25 11:12:37;;;;;;;4.80;2.63;;;;;;;;;;6115309;23;20065;-62
2024/01/25 11:15:34;;;;;;;2.75;2.28;;;;;;;;;;6116559;23;20116;-61
2024/01/25 11:18:28;;;;;;;7.80;2.50;;;;;;;;;;6116335;23;20022;-66
2024/01/25 11:21:29;;;;;;;2.60;2.03;;;;;;;;;;6114990;23;20040;-66
2024/01/25 11:24:24;;;;;;;4.68;2.30;;;;;;;;;;6115996;23;20050;-66
2024/01/25 11:27:11;;;;;;;1.92;1.73;;;;;;;;;;6115131;23;20022;-62
2024/01/25 11:30:25;;;;;;;7.07;2.13;;;;;;;;;;6114664;23;20042;-58
2024/01/25 11:33:20;;;;;;;3.60;2.03;;;;;;;;;;6114230;23;20292;-66
2024/01/25 11:36:14;;;;;;;2.75;1.90;;;;;;;;;;6114759;23;20400;-66
2024/01/25 11:39:01;;;;;;;2.83;1.80;;;;;;;;;;6114966;23;20026;-66
2024/01/25 11:41:55;;;;;;;2.80;2.00;;;;;;;;;;6115545;23;20116;-66
2024/01/25 11:44:42;;;;;;;2.47;1.70;;;;;;;;;;6117317;23;20033;-66
2024/01/25 11:47:36;;;;;;;2.35;1.50;;;;;;;;;;6116331;23;20371;-60
2024/01/25 11:50:23;;;;;;;6.05;1.58;;;;;;;;;;6116865;23;20044;-60
2024/01/25 11:53:17;;;;;;;3.72;1.40;;;;;;;;;;6115043;23;20062;-59
2024/01/25 11:56:07;;;;;;;3.50;1.63;;;;;;;;;;6114927;23;20069;-67
2024/01/25 11:59:02;;;;;;;2.00;1.20;;;;;;;;;;6115846;23;20022;-67
2024/01/25 12:01:49;;;;;;;1.77;1.17;;;;;;;;;;6112820;23;20025;-67
2024/01/25 12:04:49;;;;;;;3.85;1.35;;;;;;;;;;6115059;23;20093;-67
2024/01/25 12:07:39;;;;;;;2.20;1.50;;;;;;;;;;6114825;23;20401;-67
2024/01/25 12:10:33;;;;;;;4.80;1.50;;;;;;;;;;6115998;23;20022;-66
2024/01/25 12:13:26;;;;;;;2.65;1.42;;;;;;;;;;6115580;23;20065;-67
2024/01/25 12:16:20;;;;;;;2.50;1.38;;;;;;;;;;6116202;23;20831;-61
2024/01/25 12:19:15;;;;;;;3.45;1.60;;;;;;;;;;6116597;23;20025;-60
2024/01/25 12:22:09;;;;;;;1.17;1.05;;;;;;;;;;6116766;23;20022;-60
2024/01/25 12:24:58;;;;;;;1.85;1.20;;;;;;;;;;6117802;23;20677;-65
2024/01/25 12:27:53;;;;;;;2.05;1.20;;;;;;;;;;6117558;23;20551;-58
2024/01/25 12:30:41;;;;;;;2.03;1.23;;;;;;;;;;6117354;23;20096;-58
2024/01/25 12:33:35;;;;;;;2.30;1.20;;;;;;;;;;6116930;23;20036;-57
2024/01/25 12:36:23;;;;;;;2.45;1.30;;;;;;;;;;6115992;23;20132;-58
2024/01/25 12:39:17;;;;;;;2.38;1.20;;;;;;;;;;6115996;23;20022;-57
2024/01/25 12:42:04;;;;;;;9.77;1.20;;;;;;;;;;6118568;23;20026;-56
2024/01/25 12:44:58;;;;;;;4.75;1.20;;;;;;;;;;6116887;23;20467;-61
2024/01/25 12:47:52;;;;;;;1.65;1.40;;;;;;;;;;6118471;23;20018;-59
2024/01/25 12:50:39;;;;;;;1.50;1.08;;;;;;;;;;6117784;23;20044;-60
2024/01/25 12:53:33;;;;;;;1.95;1.30;;;;;;;;;;6117638;23;20104;-52
2024/01/25 12:56:20;;;;;;;1.63;1.08;;;;;;;;;;6115786;23;20026;-57
2024/01/25 12:59:14;;;;;;;1.60;1.05;;;;;;;;;;6115991;23;20389;-57
2024/01/25 13:02:02;;;;;;;2.08;1.40;;;;;;;;;;6115408;23;20476;-58
2024/01/25 13:04:56;;;;;;;3.08;1.20;;;;;;;;;;6117339;23;20096;-58
2024/01/25 13:07:43;;;;;;;3.63;1.10;;;;;;;;;;6115283;23;20029;-57
2024/01/25 13:10:38;;;;;;;1.60;0.90;;;;;;;;;;6116705;23;20724;-54
2024/01/25 13:13:31;;;;;;;1.95;1.05;;;;;;;;;;6114740;23;20037;-60
2024/01/25 13:16:32;;;;;;;2.35;1.75;;;;;;;;;;6115819;23;20734;-59
2024/01/25 13:19:19;;;;;;;2.45;1.60;;;;;;;;;;6116241;23;20029;-60
2024/01/25 13:22:14;;;;;;;3.65;2.00;;;;;;;;;;6115899;23;20060;-60
2024/01/25 13:25:01;;;;;;;3.15;1.85;;;;;;;;;;6117123;23;20030;-65
2024/01/25 13:27:55;;;;;;;3.78;1.90;;;;;;;;;;6116710;23;20025;-65
2024/01/25 13:30:44;;;;;;;1.88;1.48;;;;;;;;;;6117030;23;20022;-65
2024/01/25 13:33:38;;;;;;;1.77;0.98;;;;;;;;;;6115950;23;20140;-65
2024/01/25 13:36:25;;;;;;;1.60;1.00;;;;;;;;;;6115868;23;20026;-65
2024/01/25 13:39:19;;;;;;;2.65;1.40;;;;;;;;;;6117464;23;20026;-49
2024/01/25 13:42:06;;;;;;;2.35;1.27;;;;;;;;;;6117504;23;20082;-48
2024/01/25 13:45:00;;;;;;;2.47;1.33;;;;;;;;;;6117757;23;20024;-50
2024/01/25 13:47:54;;;;;;;1.20;1.10;;;;;;;;;;6117062;23;20033;-49
2024/01/25 13:50:41;;;;;;;0.95;0.95;;;;;;;;;;6115821;23;20025;-53
2024/01/25 13:53:35;;;;;;;1.63;1.08;;;;;;;;;;6115833;23;20029;-61
2024/01/25 13:56:29;;;;;;;2.28;1.40;;;;;;;;;;6116212;23;20096;-60
2024/01/25 13:59:25;;;;;;;2.45;1.00;;;;;;;;;;6114634;23;20022;-59
2024/01/25 14:02:17;;;;;;;1.63;1.20;;;;;;;;;;6114745;23;20546;-60
2024/01/25 14:05:04;;;;;;;1.17;0.93;;;;;;;;;;6116791;23;20026;-60
2024/01/25 14:07:59;;;;;;;1.30;1.13;;;;;;;;;;6115904;23;20206;-60
2024/01/25 14:10:45;;;;;;;1.27;1.13;;;;;;;;;;6115102;23;20499;-58
2024/01/25 14:13:46;;;;;;;1.63;1.27;;;;;;;;;;6113616;23;20037;-61
2024/01/25 14:16:41;;;;;;;2.58;1.10;;;;;;;;;;6115580;23;20026;-60
2024/01/25 14:19:35;;;;;;;1.35;1.02;;;;;;;;;;6115266;23;20028;-52
2024/01/25 14:22:30;;;;;;;1.95;1.23;;;;;;;;;;6115887;23;20030;-64
2024/01/25 14:25:24;;;;;;;2.20;1.23;;;;;;;;;;6116362;23;20026;-64
2024/01/25 14:28:18;;;;;;;1.42;1.17;;;;;;;;;;6116048;23;20022;-64
2024/01/25 14:31:06;;;;;;;4.35;1.17;;;;;;;;;;6115787;23;20022;-64
2024/01/25 14:34:00;;;;;;;2.20;1.38;;;;;;;;;;6117032;23;20101;-64
2024/01/25 14:36:50;;;;;;;1.15;1.00;;;;;;;;;;6113117;23;20534;-62
2024/01/25 14:39:42;;;;;;;2.25;1.67;;;;;;;;;;6114862;23;20025;-62
2024/01/25 14:42:49;;;;;;;2.03;1.00;;;;;;;;;;6115062;23;20419;-62
2024/01/25 14:45:43;;;;;;;1.77;1.15;;;;;;;;;;6114765;23;20030;-62
2024/01/25 14:48:30;;;;;;;2.60;1.00;;;;;;;;;;6115434;23;20033;-68
2024/01/25 14:51:24;;;;;;;1.48;1.20;;;;;;;;;;6116239;23;20021;-53
2024/01/25 14:54:11;;;;;;;3.17;1.08;;;;;;;;;;6116377;23;20045;-55
2024/01/25 14:57:05;;;;;;;2.25;1.50;;;;;;;;;;6117165;23;20026;-56
2024/01/25 14:59:52;;;;;;;2.05;1.23;;;;;;;;;;6116334;23;20495;-57
2024/01/25 15:02:46;;;;;;;2.65;1.38;;;;;;;;;;6115299;23;20062;-58
2024/01/25 15:05:34;;;;;;;3.45;1.20;;;;;;;;;;6116143;23;20528;-58
2024/01/25 15:08:27;;;;;;;2.67;1.50;;;;;;;;;;6115211;23;20526;-58
2024/01/25 15:11:14;;;;;;;2.45;1.48;;;;;;;;;;6114474;23;20022;-57
2024/01/25 15:14:14;;;;;;;4.68;1.20;;;;;;;;;;6114137;23;20034;-58
2024/01/25 15:17:02;;;;;;;3.28;1.33;;;;;;;;;;6115076;23;20022;-62
2024/01/25 15:19:56;;;;;;;1.88;1.30;;;;;;;;;;6115084;23;20550;-63
2024/01/25 15:22:43;;;;;;;2.05;1.52;;;;;;;;;;6114532;23;20788;-63
2024/01/25 15:25:37;;;;;;;2.50;1.48;;;;;;;;;;6113494;23;20022;-64
2024/01/25 15:28:24;;;;;;;2.42;1.40;;;;;;;;;;6114602;23;20102;-64
2024/01/25 15:31:18;;;;;;;2.30;1.15;;;;;;;;;;6117185;23;20025;-63
2024/01/25 15:34:12;;;;;;;3.95;1.40;;;;;;;;;;6117161;23;20121;-60
2024/01/25 15:37:06;;;;;;;3.30;1.25;;;;;;;;;;6115552;23;20359;-59
2024/01/25 15:40:00;;;;;;;1.40;1.10;;;;;;;;;;6113645;23;20030;-61
2024/01/25 15:42:55;;;;;;;3.08;1.48;;;;;;;;;;6114322;23;20387;-61
2024/01/25 15:45:41;;;;;;;2.30;1.60;;;;;;;;;;6117285;23;20029;-50
2024/01/25 15:48:35;;;;;;;2.95;1.90;;;;;;;;;;6114966;23;20025;-60
2024/01/25 15:51:09;;;;;;;2.28;1.25;;;;;;;;;;6117815;23;20018;-59
2024/01/25 15:53:36;;;;;;;5.38;2.35;;;;;;;;;;6115048;23;20547;-56
2024/01/25 15:56:04;;;;;;;4.10;1.60;;;;;;;;;;6117281;23;20022;-59
2024/01/25 15:58:38;;;;;;;3.25;1.23;;;;;;;;;;6116478;23;20022;-58
2024/01/25 16:01:05;;;;;;;3.00;1.95;;;;;;;;;;6115500;23;20030;-59
2024/01/25 16:03:32;;;;;;;;;;;;;;;;;;6117872;23;20026;-52
2024/01/25 16:06:06;;;;;;;3.45;1.30;;;;;;;;;;6117219;23;20422;-53
2024/01/25 16:08:34;;;;;;;;;;;;;;;;;;6114044;23;20029;-50
2024/01/25 16:11:28;;;;;;;2.58;1.60;;;;;;;;;;6114815;23;20390;-49
2024/01/25 16:14:28;;;;;;;3.50;1.95;;;;;;;;;;6113555;23;20036;-47
2024/01/25 16:17:16;;;;;;;4.63;1.90;;;;;;;;;;6115198;23;20025;-52
2024/01/25 16:20:10;;;;;;;6.45;1.98;;;;;;;;;;6108166;23;20101;-58
2024/01/25 16:22:57;;;;;;;3.42;1.77;;;;;;;;;;6115139;23;20049;-57
2024/01/25 16:25:51;;;;;;;4.43;1.80;;;;;;;;;;6112900;23;20025;-63
2024/01/25 16:28:38;;;;;;;2.00;1.60;;;;;;;;;;6112831;23;20029;-63
2024/01/25 16:31:32;;;;;;;2.78;1.77;;;;;;;;;;6116879;23;20459;-63
2024/01/25 16:34:19;;;;;;;3.80;2.10;;;;;;;;;;6116148;23;20030;-65
2024/01/25 16:37:13;;;;;;;6.13;2.80;;;;;;;;;;6115757;23;20065;-63
2024/01/25 16:40:00;;;;;;;33.50;22.70;;;;;;;;;;6114857;23;20080;-56
2024/01/25 16:42:55;;;;;;;4.45;2.03;;;;;;;;;;6114997;23;20029;-53
2024/01/25 16:45:41;;;;;;;6.78;3.53;;;;;;;;;;6115478;23;20076;-53
2024/01/25 16:48:35;;;;;;;8.10;4.00;;;;;;;;;;6117246;23;20080;-50
2024/01/25 16:51:22;;;;;;;13.52;7.90;;;;;;;;;;6114991;23;20345;-53
2024/01/25 16:54:16;;;;;;;12.05;6.35;;;;;;;;;;6116324;23;20025;-50
2024/01/25 16:57:10;;;;;;;12.05;6.70;;;;;;;;;;6115668;23;20026;-64
2024/01/25 17:00:04;;;;;;;15.13;7.75;;;;;;;;;;6116134;23;20033;-62
2024/01/25 17:02:52;;;;;;;6.65;3.97;;;;;;;;;;6114072;23;20035;-62